Terminal Aerodrome Forecast
Issued by NWS Wichita, KS

Home | Current Version | Previous Version | Text Only | Print | Product List | Glossary On
Versions: 1 2 3 4 5 6 7 8 9 10 11 12 13 14 15 16
000
FTUS43 KICT 230537
TAFICT
TAF
KICT 230537Z 2306/2406 29010KT P6SM SCT070
     FM231600 32015G23KT P6SM BKN040 OVC060
     FM231900 33017G26KT P6SM OVC020
     FM232300 34017G25KT P6SM VCSH OVC012=

USA.gov is the U.S. government's official web portal to all federal, state and local government web resources and services.